Time;durP1;ratioP1;P1;durP2;ratioP2;P2;SDS_P1;SDS_P2;PMS_P1;PMS_P2;Temp;Humidity;BMP_temperature;BMP_pressure;BME280_temperature;BME280_humidity;BME280_pressure;Samples;Min_cycle;Max_cycle;Signal;HPM_P1;HPM_P2
2021/03/27 00:01:41;;;;;;;9.80;7.95;;;9.80;99.90;;;;;;5114480;28;20277;-68
2021/03/27 00:04:15;;;;;;;9.55;7.60;;;9.80;99.90;;;;;;5114920;27;20548;-68
2021/03/27 00:06:45;;;;;;;9.02;7.68;;;9.90;99.90;;;;;;5114516;28;20198;-69
2021/03/27 00:09:38;;;;;;;10.73;7.82;;;10.00;99.90;;;;;;5114602;28;20650;-69
2021/03/27 00:12:07;;;;;;;10.27;7.70;;;10.10;99.90;;;;;;5113437;28;20677;-68
2021/03/27 00:14:52;;;;;;;12.00;8.18;;;10.10;99.90;;;;;;5114337;28;20289;-69
2021/03/27 00:17:33;;;;;;;9.27;7.20;;;10.30;99.90;;;;;;5114188;28;20649;-69
2021/03/27 00:20:11;;;;;;;14.13;8.10;;;10.40;99.90;;;;;;5114065;28;20241;-69
2021/03/27 00:22:44;;;;;;;9.55;7.43;;;10.50;99.90;;;;;;5114467;28;20175;-69
2021/03/27 00:25:29;;;;;;;9.13;7.80;;;10.60;99.90;;;;;;5113323;28;20538;-69
2021/03/27 00:28:02;;;;;;;10.27;7.65;;;10.60;99.90;;;;;;5114380;28;20178;-68
2021/03/27 00:31:04;;;;;;;13.65;8.27;;;10.60;99.90;;;;;;5113944;28;20218;-70
2021/03/27 00:33:34;;;;;;;9.20;7.70;;;10.60;99.90;;;;;;5071659;28;20199;-69
2021/03/27 00:36:08;;;;;;;9.80;8.20;;;10.60;99.90;;;;;;5105098;28;20202;-69
2021/03/27 00:38:42;;;;;;;7.90;7.10;;;10.60;99.90;;;;;;5114311;28;20267;-69
2021/03/27 00:41:22;;;;;;;8.85;8.00;;;10.60;99.90;;;;;;5112850;28;20221;-68
2021/03/27 00:43:57;;;;;;;9.63;8.27;;;10.60;99.90;;;;;;5112692;28;20207;-69
2021/03/27 00:46:25;;;;;;;13.00;7.72;;;10.60;99.90;;;;;;5114591;28;20170;-69
2021/03/27 00:48:58;;;;;;;10.50;8.95;;;10.50;99.90;;;;;;5112610;28;20209;-70
2021/03/27 00:51:38;;;;;;;9.02;7.60;;;10.60;99.90;;;;;;5114030;28;20230;-69
2021/03/27 00:54:28;;;;;;;10.27;8.43;;;10.60;99.90;;;;;;5114524;28;20205;-69
2021/03/27 00:57:14;;;;;;;13.18;7.63;;;10.50;99.90;;;;;;5114098;28;20204;-70
2021/03/27 01:00:04;;;;;;;13.40;8.55;;;10.50;99.90;;;;;;5115604;28;20222;-70
2021/03/27 01:02:35;;;;;;;10.48;7.47;;;10.50;99.90;;;;;;5115701;28;20618;-70
2021/03/27 01:05:08;;;;;;;9.63;7.85;;;10.40;99.90;;;;;;5114621;28;20171;-70
2021/03/27 01:07:37;;;;;;;10.82;7.80;;;10.40;99.90;;;;;;5114028;28;20171;-70
2021/03/27 01:10:49;;;;;;;9.80;8.10;;;10.30;99.90;;;;;;5113929;28;20707;-70
2021/03/27 01:13:42;;;;;;;11.20;7.72;;;10.40;99.90;;;;;;5091253;28;20207;-69
2021/03/27 01:16:12;;;;;;;9.23;7.13;;;10.40;99.90;;;;;;5113571;28;20209;-70
2021/03/27 01:18:42;;;;;;;10.43;7.38;;;10.30;99.90;;;;;;5114062;28;20673;-68
2021/03/27 01:21:15;;;;;;;12.80;7.38;;;10.40;99.90;;;;;;5113630;28;20241;-69
2021/03/27 01:23:44;;;;;;;12.70;9.05;;;10.30;99.90;;;;;;5114190;28;20261;-69
2021/03/27 01:26:17;;;;;;;8.60;7.55;;;10.30;99.90;;;;;;5113731;28;20199;-69
2021/03/27 01:29:14;;;;;;;9.27;7.47;;;10.30;99.90;;;;;;5114008;28;20659;-69
2021/03/27 01:32:01;;;;;;;11.60;7.18;;;10.30;99.90;;;;;;5104226;28;20230;-68
2021/03/27 01:34:38;;;;;;;9.52;7.90;;;10.30;99.90;;;;;;5114290;28;20179;-69
2021/03/27 01:37:15;;;;;;;9.02;7.53;;;10.30;99.90;;;;;;5113573;28;20263;-70
2021/03/27 01:39:52;;;;;;;7.00;6.30;;;10.40;99.90;;;;;;5113479;28;20218;-70
2021/03/27 01:42:48;;;;;;;6.78;6.18;;;10.40;99.90;;;;;;5113559;28;20179;-70
2021/03/27 01:45:32;;;;;;;8.80;7.03;;;10.40;99.90;;;;;;5113910;28;20620;-70
2021/03/27 01:48:28;;;;;;;10.57;7.90;;;10.30;99.90;;;;;;5116299;28;20186;-70
2021/03/27 01:51:05;;;;;;;11.88;7.97;;;10.20;99.90;;;;;;5108251;28;20708;-69
2021/03/27 01:53:51;;;;;;;8.43;7.00;;;10.20;99.90;;;;;;5117828;28;20200;-69
2021/03/27 01:56:25;;;;;;;8.90;6.80;;;10.20;99.90;;;;;;5117692;27;20175;-69
2021/03/27 01:59:00;;;;;;;7.63;6.93;;;10.20;99.90;;;;;;5117007;28;20262;-69
2021/03/27 02:01:35;;;;;;;11.98;8.68;;;10.20;99.90;;;;;;5118519;27;20198;-69
2021/03/27 02:04:28;;;;;;;8.32;7.43;;;10.30;99.90;;;;;;5117130;28;20171;-69
2021/03/27 02:07:04;;;;;;;7.30;6.35;;;10.30;99.90;;;;;;5116835;28;20258;-69
2021/03/27 02:09:58;;;;;;;6.70;6.00;;;10.40;99.90;;;;;;5117151;28;20182;-69
2021/03/27 02:12:51;;;;;;;7.03;5.22;;;10.40;99.90;;;;;;5117523;28;20228;-69
2021/03/27 02:15:46;;;;;;;10.60;6.32;;;10.50;99.90;;;;;;5117105;28;20182;-69
2021/03/27 02:18:29;;;;;;;6.03;5.40;;;10.50;99.90;;;;;;5116807;28;20182;-69
2021/03/27 02:21:19;;;;;;;7.63;5.95;;;10.50;99.90;;;;;;5116786;28;20203;-68
2021/03/27 02:24:31;;;;;;;6.75;6.07;;;10.40;99.90;;;;;;5116689;27;20179;-69
2021/03/27 02:27:00;;;;;;;6.45;5.70;;;10.30;99.90;;;;;;5105895;27;20202;-69
2021/03/27 02:29:52;;;;;;;4.68;4.38;;;10.20;99.90;;;;;;5116636;28;20194;-69
2021/03/27 02:32:35;;;;;;;3.80;3.50;;;10.30;99.90;;;;;;5116405;28;20182;-67
2021/03/27 02:35:14;;;;;;;3.10;2.90;;;10.30;99.90;;;;;;5116374;28;20185;-67
2021/03/27 02:38:18;;;;;;;2.47;2.28;;;10.30;99.90;;;;;;5116527;28;20185;-68
2021/03/27 02:41:24;;;;;;;1.88;1.77;;;10.20;99.90;;;;;;5116593;28;20245;-67
2021/03/27 02:44:04;;;;;;;2.20;2.10;;;10.20;99.90;;;;;;5093175;28;20195;-68
2021/03/27 02:46:44;;;;;;;2.35;2.25;;;10.10;99.90;;;;;;5116475;28;20209;-68
2021/03/27 02:49:10;;;;;;;2.20;2.10;;;10.00;99.90;;;;;;5116700;28;20206;-68
2021/03/27 02:51:50;;;;;;;2.20;1.45;;;9.90;99.90;;;;;;5116644;28;20226;-68
2021/03/27 02:54:29;;;;;;;1.77;1.67;;;9.80;99.90;;;;;;5116087;28;20198;-68
2021/03/27 02:57:23;;;;;;;2.30;2.08;;;9.70;99.90;;;;;;5116749;28;20235;-68
2021/03/27 03:00:12;;;;;;;1.60;1.50;;;9.70;99.90;;;;;;5114937;28;20653;-68
2021/03/27 03:02:51;;;;;;;3.63;1.67;;;9.60;99.90;;;;;;5116229;28;20203;-68
2021/03/27 03:05:24;;;;;;;1.40;1.30;;;9.50;99.90;;;;;;5116077;28;20198;-68
2021/03/27 03:08:08;;;;;;;1.40;1.30;;;9.40;99.90;;;;;;5114689;28;20190;-68
2021/03/27 03:10:41;;;;;;;1.27;1.17;;;9.30;99.90;;;;;;5115995;28;20195;-68
2021/03/27 03:13:17;;;;;;;4.03;1.50;;;9.20;99.90;;;;;;5115696;28;20710;-68
2021/03/27 03:16:05;;;;;;;1.50;1.05;;;9.20;99.90;;;;;;5115667;27;20251;-68
2021/03/27 03:19:05;;;;;;;1.08;0.80;;;9.10;99.90;;;;;;5115555;28;20680;-68
2021/03/27 03:22:02;;;;;;;1.10;0.93;;;9.00;99.90;;;;;;5110625;28;20198;-68
2021/03/27 03:24:53;;;;;;;0.70;0.70;;;8.90;99.90;;;;;;5115324;27;20544;-68
2021/03/27 03:27:31;;;;;;;0.90;0.90;;;8.80;99.90;;;;;;5115517;27;20170;-68
2021/03/27 03:30:30;;;;;;;0.80;0.70;;;8.70;99.90;;;;;;5115235;28;20544;-68
2021/03/27 03:33:35;;;;;;;0.70;0.70;;;8.70;99.90;;;;;;5115292;28;20190;-68
2021/03/27 03:36:52;;;;;;;1.75;0.93;;;8.70;99.90;;;;;;5115846;28;20244;-68
2021/03/27 03:39:32;;;;;;;0.80;0.80;;;8.70;99.90;;;;;;5072362;28;20211;-68
2021/03/27 03:42:12;;;;;;;1.13;1.02;;;8.70;99.90;;;;;;5114612;28;20713;-68
2021/03/27 03:45:01;;;;;;;1.00;0.90;;;8.60;99.90;;;;;;5115044;28;20634;-68
2021/03/27 03:47:44;;;;;;;1.25;1.15;;;8.60;99.90;;;;;;5115032;28;20179;-68
2021/03/27 03:50:23;;;;;;;1.95;0.90;;;8.50;99.90;;;;;;5115232;28;20313;-68
2021/03/27 03:53:03;;;;;;;1.30;1.20;;;8.50;99.90;;;;;;5115002;28;20220;-68
2021/03/27 03:55:57;;;;;;;0.80;0.80;;;8.30;99.90;;;;;;5114974;28;20277;-68
2021/03/27 03:58:31;;;;;;;1.20;1.10;;;8.20;99.90;;;;;;5115315;27;20209;-68
2021/03/27 04:01:13;;;;;;;1.05;1.05;;;8.10;99.90;;;;;;5114768;28;20259;-68
2021/03/27 04:04:06;;;;;;;1.20;1.10;;;8.00;99.90;;;;;;5114148;28;20198;-68
2021/03/27 04:06:41;;;;;;;1.40;1.40;;;7.90;99.90;;;;;;5114150;28;20191;-68
2021/03/27 04:09:25;;;;;;;0.90;0.90;;;7.80;99.90;;;;;;5114424;28;20191;-68
2021/03/27 04:12:22;;;;;;;0.98;0.98;;;7.70;99.90;;;;;;5113977;28;20187;-68
2021/03/27 04:15:10;;;;;;;0.82;0.82;;;7.60;99.90;;;;;;5102080;28;20233;-68
2021/03/27 04:17:43;;;;;;;0.80;0.80;;;7.60;99.90;;;;;;5094375;28;20325;-68
2021/03/27 04:20:36;;;;;;;1.10;0.80;;;7.40;99.90;;;;;;5094182;28;20223;-68
2021/03/27 04:23:29;;;;;;;0.60;0.60;;;7.40;99.90;;;;;;5094245;28;20176;-68
2021/03/27 04:26:10;;;;;;;1.13;0.60;;;7.30;99.90;;;;;;5094532;28;20171;-68
2021/03/27 04:28:40;;;;;;;1.13;0.90;;;7.20;99.90;;;;;;5094754;28;20615;-68
2021/03/27 04:31:18;;;;;;;0.70;0.70;;;7.10;99.90;;;;;;5094472;28;20218;-68
2021/03/27 04:34:03;;;;;;;1.00;0.70;;;7.00;99.90;;;;;;5094172;28;20186;-68
2021/03/27 04:37:04;;;;;;;0.60;0.60;;;6.90;99.90;;;;;;5094003;28;20180;-68
2021/03/27 04:39:43;;;;;;;1.00;0.80;;;6.80;99.90;;;;;;5093916;28;20211;-68
2021/03/27 04:42:55;;;;;;;0.70;0.70;;;6.60;99.90;;;;;;5093942;28;20195;-68
2021/03/27 04:45:30;;;;;;;1.25;0.90;;;6.60;99.90;;;;;;5071522;28;20199;-68
2021/03/27 04:48:32;;;;;;;0.77;0.77;;;6.70;99.90;;;;;;5071046;28;20647;-68
2021/03/27 04:51:26;;;;;;;0.60;0.60;;;6.70;99.90;;;;;;5046655;28;20258;-68
2021/03/27 04:54:06;;;;;;;0.90;0.85;;;6.60;99.90;;;;;;5092644;28;20214;-68
2021/03/27 04:57:07;;;;;;;1.20;0.88;;;6.70;99.90;;;;;;5093567;28;20566;-68
2021/03/27 04:59:52;;;;;;;0.70;0.70;;;6.70;99.90;;;;;;5093884;28;20172;-68
2021/03/27 05:02:35;;;;;;;1.00;1.00;;;6.60;99.90;;;;;;5093470;28;20191;-68
2021/03/27 05:05:11;;;;;;;1.27;1.08;;;6.60;99.90;;;;;;5093384;28;20186;-68
2021/03/27 05:07:46;;;;;;;1.45;0.70;;;6.70;99.90;;;;;;5094028;28;20167;-68
2021/03/27 05:10:25;;;;;;;1.20;0.90;;;6.70;99.90;;;;;;5094096;28;20217;-69
2021/03/27 05:13:16;;;;;;;2.10;0.90;;;6.70;99.90;;;;;;5093531;28;20190;-68
2021/03/27 05:15:47;;;;;;;1.10;1.00;;;6.80;99.90;;;;;;5093624;28;20206;-67
2021/03/27 05:18:20;;;;;;;1.30;0.80;;;6.80;99.90;;;;;;5094096;28;20558;-67
2021/03/27 05:20:58;;;;;;;1.10;1.00;;;6.80;99.90;;;;;;5093631;28;20655;-69
2021/03/27 05:24:02;;;;;;;1.88;0.90;;;6.80;99.90;;;;;;5096665;28;20541;-67
2021/03/27 05:26:50;;;;;;;1.00;0.90;;;6.80;99.90;;;;;;5097147;28;20195;-67
2021/03/27 05:29:29;;;;;;;1.55;1.17;;;6.90;99.90;;;;;;5097319;28;20198;-67
2021/03/27 05:32:28;;;;;;;3.17;0.98;;;6.90;99.90;;;;;;5097380;28;20261;-67
2021/03/27 05:35:03;;;;;;;1.80;1.23;;;6.80;99.90;;;;;;5097552;28;20180;-67
2021/03/27 05:37:54;;;;;;;1.30;1.20;;;6.90;99.90;;;;;;5097240;28;20175;-67
2021/03/27 05:40:44;;;;;;;2.35;1.20;;;6.90;99.90;;;;;;5097060;28;20203;-67
2021/03/27 05:43:40;;;;;;;3.45;0.90;;;6.80;99.90;;;;;;5096950;28;20183;-67
2021/03/27 05:46:27;;;;;;;1.60;0.95;;;6.80;99.90;;;;;;5097080;28;20210;-68
2021/03/27 05:49:05;;;;;;;3.65;1.55;;;6.60;99.90;;;;;;5097249;28;20203;-69
2021/03/27 05:51:46;;;;;;;1.67;1.58;;;6.60;99.90;;;;;;5096804;28;20230;-69
2021/03/27 05:54:46;;;;;;;2.10;1.65;;;6.50;99.90;;;;;;5096991;28;20659;-69
2021/03/27 05:57:40;;;;;;;2.08;1.65;;;6.50;99.90;;;;;;5098342;28;20214;-69
2021/03/27 06:00:30;;;;;;;2.17;2.00;;;6.50;99.90;;;;;;5117595;28;20191;-69
2021/03/27 06:03:45;;;;;;;4.03;2.55;;;6.60;99.90;;;;;;5116047;28;20650;-69
2021/03/27 06:06:59;;;;;;;8.73;7.78;;;6.70;99.90;;;;;;5107036;28;20217;-69
2021/03/27 06:10:01;;;;;;;3.63;2.72;;;6.80;99.90;;;;;;5100510;28;20214;-69
2021/03/27 06:12:42;;;;;;;4.55;3.30;;;6.90;99.90;;;;;;5117139;28;20170;-69
2021/03/27 06:15:36;;;;;;;5.68;5.18;;;6.90;99.90;;;;;;5115816;28;20202;-69
2021/03/27 06:18:25;;;;;;;3.05;2.80;;;6.90;99.90;;;;;;5116653;28;20195;-69
2021/03/27 06:21:19;;;;;;;5.18;4.78;;;6.90;99.90;;;;;;5116377;28;20246;-69
2021/03/27 06:24:17;;;;;;;13.85;9.85;;;6.90;99.90;;;;;;5116818;28;20195;-69
2021/03/27 06:27:04;;;;;;;6.22;2.35;;;7.00;99.90;;;;;;5113968;27;20186;-69
2021/03/27 06:29:49;;;;;;;3.20;3.00;;;7.00;99.90;;;;;;5107381;28;20194;-69
2021/03/27 06:32:35;;;;;;;6.32;5.60;;;7.00;99.90;;;;;;5115810;27;20663;-69
2021/03/27 06:35:32;;;;;;;3.60;2.60;;;7.10;99.90;;;;;;5116229;28;20198;-69
2021/03/27 06:38:16;;;;;;;9.35;4.68;;;7.20;99.90;;;;;;5115734;28;20214;-68
2021/03/27 06:41:04;;;;;;;9.15;5.93;;;7.10;99.90;;;;;;5115856;28;20209;-69
2021/03/27 06:43:57;;;;;;;3.05;2.25;;;7.20;99.90;;;;;;5115509;28;20227;-69
2021/03/27 06:46:42;;;;;;;4.70;4.20;;;7.10;99.90;;;;;;5115780;28;20593;-67
2021/03/27 06:49:39;;;;;;;4.05;2.70;;;7.20;99.90;;;;;;5115678;28;20183;-67
2021/03/27 06:52:36;;;;;;;6.10;2.30;;;7.20;99.90;;;;;;5115920;28;20195;-69
2021/03/27 06:55:24;;;;;;;5.68;1.60;;;7.20;99.90;;;;;;5116354;28;20206;-69
2021/03/27 06:58:05;;;;;;;3.17;1.85;;;7.10;99.90;;;;;;5101493;28;20200;-69
2021/03/27 07:00:38;;;;;;;1.50;1.40;;;7.10;99.90;;;;;;5115875;28;20203;-69
2021/03/27 07:03:37;;;;;;;4.57;3.90;;;7.10;99.90;;;;;;5116187;28;20190;-70
2021/03/27 07:06:24;;;;;;;8.05;5.97;;;7.10;99.90;;;;;;5115024;28;20207;-68
2021/03/27 07:09:13;;;;;;;3.10;1.95;;;7.10;99.90;;;;;;5115853;28;20194;-69
2021/03/27 07:11:54;;;;;;;3.22;1.60;;;7.10;99.90;;;;;;5103648;28;20607;-69
2021/03/27 07:15:05;;;;;;;4.30;2.58;;;7.20;99.90;;;;;;5115535;28;20201;-69
2021/03/27 07:18:12;;;;;;;3.28;1.40;;;7.20;99.90;;;;;;5115272;28;20202;-69
2021/03/27 07:20:51;;;;;;;5.38;2.00;;;7.20;99.90;;;;;;5114716;28;20234;-69
2021/03/27 07:23:38;;;;;;;2.05;1.40;;;7.20;99.90;;;;;;5115484;28;20221;-68
2021/03/27 07:26:45;;;;;;;3.22;1.77;;;7.10;99.90;;;;;;5100840;28;20694;-69
2021/03/27 07:29:31;;;;;;;3.75;2.10;;;7.20;99.90;;;;;;5115293;28;20202;-69
2021/03/27 07:32:23;;;;;;;4.13;1.40;;;7.40;99.90;;;;;;5103256;28;20230;-69
2021/03/27 07:35:23;;;;;;;2.25;1.38;;;7.50;99.90;;;;;;5115510;28;20179;-69
2021/03/27 07:38:31;;;;;;;2.45;1.00;;;7.70;99.90;;;;;;5115872;28;20185;-69
2021/03/27 07:41:15;;;;;;;4.32;1.85;;;8.00;99.90;;;;;;5115783;28;20214;-68
2021/03/27 07:44:00;;;;;;;3.05;1.45;;;8.00;99.90;;;;;;5115929;28;20571;-69
2021/03/27 07:47:04;;;;;;;1.90;1.40;;;8.20;99.90;;;;;;5114901;28;20179;-69
2021/03/27 07:50:15;;;;;;;2.17;1.15;;;8.10;99.90;;;;;;5115499;28;20240;-69
2021/03/27 07:52:59;;;;;;;2.33;1.15;;;8.20;99.90;;;;;;5115687;28;20174;-69
2021/03/27 07:55:49;;;;;;;3.33;1.40;;;8.20;99.90;;;;;;5115694;28;20540;-68
2021/03/27 07:58:37;;;;;;;3.80;1.25;;;8.10;99.90;;;;;;5115145;28;20324;-68
2021/03/27 08:01:35;;;;;;;4.15;1.13;;;8.10;99.90;;;;;;5115278;28;20693;-69
2021/03/27 08:04:19;;;;;;;9.95;1.52;;;8.30;99.90;;;;;;5115184;28;20198;-69
2021/03/27 08:07:00;;;;;;;4.78;1.77;;;8.30;99.90;;;;;;5115083;28;20190;-69
2021/03/27 08:09:48;;;;;;;1.63;0.90;;;8.20;99.90;;;;;;5113892;28;20205;-69
2021/03/27 08:12:33;;;;;;;3.83;1.45;;;8.30;99.90;;;;;;5114716;28;20198;-69
2021/03/27 08:15:28;;;;;;;2.92;1.40;;;8.30;99.90;;;;;;5113549;28;20582;-69
2021/03/27 08:18:09;;;;;;;2.95;1.33;;;8.20;99.90;;;;;;5114504;28;20619;-69
2021/03/27 08:20:48;;;;;;;8.43;1.55;;;8.30;99.90;;;;;;5115257;27;20203;-69
2021/03/27 08:23:40;;;;;;;2.85;1.30;;;8.10;99.90;;;;;;5114847;28;20202;-69
2021/03/27 08:26:31;;;;;;;9.65;2.03;;;8.30;99.90;;;;;;5109294;28;20277;-69
2021/03/27 08:28:57;;;;;;;3.00;1.10;;;8.40;99.90;;;;;;5097093;28;20199;-69
2021/03/27 08:32:01;;;;;;;6.93;1.83;;;8.40;99.90;;;;;;5107449;28;20259;-69
2021/03/27 08:34:52;;;;;;;5.47;1.85;;;8.40;99.90;;;;;;5104346;28;20209;-69
2021/03/27 08:37:59;;;;;;;1.83;0.95;;;8.60;99.90;;;;;;5114161;28;20199;-69
2021/03/27 08:40:45;;;;;;;3.78;1.50;;;8.60;99.90;;;;;;5114136;28;20210;-68
2021/03/27 08:43:34;;;;;;;3.50;1.10;;;8.40;99.90;;;;;;5113996;28;20187;-69
2021/03/27 08:46:07;;;;;;;5.57;1.52;;;8.60;99.90;;;;;;5114071;28;20269;-68
2021/03/27 08:48:52;;;;;;;1.88;1.20;;;8.70;99.90;;;;;;5106956;28;20191;-69
2021/03/27 08:51:26;;;;;;;4.20;1.88;;;8.90;99.90;;;;;;5110224;28;20268;-69
2021/03/27 08:54:30;;;;;;;5.65;1.73;;;8.90;99.90;;;;;;5098450;28;20272;-69
2021/03/27 08:57:08;;;;;;;5.80;1.45;;;8.90;99.90;;;;;;5114035;28;20244;-70
2021/03/27 08:59:53;;;;;;;4.50;1.75;;;9.20;99.90;;;;;;5118956;27;20626;-68
2021/03/27 09:02:48;;;;;;;3.83;2.00;;;9.30;99.90;;;;;;5118280;28;20198;-68
2021/03/27 09:05:34;;;;;;;4.38;1.55;;;9.30;99.90;;;;;;5118506;27;20198;-68
2021/03/27 09:08:33;;;;;;;2.33;1.45;;;9.10;99.90;;;;;;5118357;28;20182;-68
2021/03/27 09:11:22;;;;;;;3.83;1.45;;;9.20;99.90;;;;;;5118090;28;20210;-68
2021/03/27 09:14:10;;;;;;;3.55;1.05;;;9.60;99.90;;;;;;5117978;28;20212;-68
2021/03/27 09:17:15;;;;;;;5.05;1.35;;;9.90;99.90;;;;;;5116926;27;20254;-68
2021/03/27 09:20:22;;;;;;;4.00;1.20;;;9.90;99.90;;;;;;5117881;28;20645;-68
2021/03/27 09:22:51;;;;;;;3.28;1.42;;;10.00;99.90;;;;;;5112218;28;20210;-68
2021/03/27 09:25:53;;;;;;;3.72;1.90;;;9.70;99.90;;;;;;5117848;28;20194;-68
2021/03/27 09:28:40;;;;;;;3.28;0.90;;;9.60;99.90;;;;;;5117994;28;20178;-68
2021/03/27 09:31:30;;;;;;;2.60;1.45;;;9.70;99.90;;;;;;5117727;28;20225;-68
2021/03/27 09:34:04;;;;;;;5.18;1.50;;;9.80;99.90;;;;;;5116747;27;20210;-68
2021/03/27 09:37:04;;;;;;;4.22;1.40;;;9.60;99.90;;;;;;5117419;28;20568;-68
2021/03/27 09:39:36;;;;;;;4.75;1.20;;;9.80;99.90;;;;;;5117649;28;20642;-68
2021/03/27 09:42:12;;;;;;;3.55;1.30;;;10.00;99.90;;;;;;5117501;28;20267;-68
2021/03/27 09:45:09;;;;;;;5.95;1.92;;;10.00;99.90;;;;;;5117553;28;20175;-68
2021/03/27 09:48:15;;;;;;;6.20;1.73;;;10.00;99.90;;;;;;5117741;27;20207;-68
2021/03/27 09:51:02;;;;;;;1.95;1.48;;;9.90;99.90;;;;;;5116726;28;20222;-68
2021/03/27 09:53:54;;;;;;;3.33;1.50;;;10.30;99.90;;;;;;5115984;28;20247;-68
2021/03/27 09:56:26;;;;;;;2.88;1.17;;;10.70;99.90;;;;;;5115874;28;20198;-68
2021/03/27 09:59:33;;;;;;;4.28;1.80;;;10.90;99.90;;;;;;5115865;28;20347;-68
2021/03/27 10:02:20;;;;;;;4.53;2.28;;;11.10;99.90;;;;;;5115770;28;20223;-67
2021/03/27 10:05:15;;;;;;;5.20;1.27;;;10.30;99.90;;;;;;5115689;28;20186;-67
2021/03/27 10:07:57;;;;;;;3.47;1.63;;;10.50;99.90;;;;;;5115332;28;20224;-67
2021/03/27 10:10:54;;;;;;;2.53;1.35;;;10.60;99.90;;;;;;5116241;28;20175;-68
2021/03/27 10:13:44;;;;;;;3.05;1.20;;;10.60;99.90;;;;;;5116456;28;20645;-68
2021/03/27 10:16:24;;;;;;;3.80;1.40;;;10.30;99.90;;;;;;5115825;28;20175;-68
2021/03/27 10:19:01;;;;;;;2.40;1.50;;;10.80;99.90;;;;;;5115515;28;20189;-68
2021/03/27 10:21:37;;;;;;;3.03;1.58;;;10.40;99.90;;;;;;5115522;28;20217;-68
2021/03/27 10:24:11;;;;;;;7.53;1.58;;;10.30;99.90;;;;;;5115678;28;20171;-68
2021/03/27 10:26:53;;;;;;;2.88;1.33;;;10.60;99.90;;;;;;5115664;28;20202;-68
2021/03/27 10:29:42;;;;;;;2.35;1.38;;;10.80;99.90;;;;;;5115797;28;20175;-68
2021/03/27 10:32:31;;;;;;;2.25;1.58;;;10.90;99.90;;;;;;5115534;28;20661;-68
2021/03/27 10:35:23;;;;;;;6.78;1.30;;;11.10;99.90;;;;;;5115708;28;20266;-68
2021/03/27 10:38:05;;;;;;;2.50;1.20;;;11.10;99.90;;;;;;5115168;28;20181;-68
2021/03/27 10:40:55;;;;;;;3.90;1.88;;;10.90;99.90;;;;;;5115153;28;20216;-68
2021/03/27 10:44:02;;;;;;;4.10;1.48;;;11.00;99.90;;;;;;5114865;28;20194;-69
2021/03/27 10:46:44;;;;;;;6.50;2.10;;;11.00;99.90;;;;;;5114084;28;20205;-67
2021/03/27 10:49:10;;;;;;;9.18;1.60;;;11.10;99.90;;;;;;5114968;28;20167;-68
2021/03/27 10:52:23;;;;;;;2.17;1.50;;;11.20;99.90;;;;;;5091234;27;20835;-67
2021/03/27 10:55:19;;;;;;;3.10;1.33;;;11.40;99.90;;;;;;5091425;28;20179;-67
2021/03/27 10:58:17;;;;;;;2.97;1.70;;;11.10;99.90;;;;;;5091506;28;20702;-68
2021/03/27 11:00:58;;;;;;;1.88;1.67;;;11.40;99.90;;;;;;5089977;28;20300;-68
2021/03/27 11:04:05;;;;;;;7.00;2.38;;;11.00;99.90;;;;;;5090558;28;20655;-67
2021/03/27 11:07:06;;;;;;;6.32;1.10;;;11.70;99.90;;;;;;5068377;28;20208;-68
2021/03/27 11:10:11;;;;;;;6.53;1.65;;;10.90;99.90;;;;;;5068680;28;20697;-68
2021/03/27 11:12:56;;;;;;;3.35;1.13;;;10.70;99.90;;;;;;5090268;28;20203;-68
2021/03/27 11:15:31;;;;;;;4.72;1.95;;;10.90;99.90;;;;;;5090324;28;20192;-68
2021/03/27 11:18:17;;;;;;;2.90;1.10;;;10.50;99.90;;;;;;5090213;28;20183;-66
2021/03/27 11:20:56;;;;;;;5.85;1.85;;;10.80;99.90;;;;;;5089929;28;20207;-67
2021/03/27 11:23:58;;;;;;;2.05;1.42;;;11.10;99.90;;;;;;5089855;28;20202;-67
2021/03/27 11:26:43;;;;;;;2.97;1.20;;;11.30;99.90;;;;;;5068027;28;20208;-67
2021/03/27 11:29:29;;;;;;;3.80;1.35;;;12.40;99.90;;;;;;5078615;28;20253;-67
2021/03/27 11:32:07;;;;;;;6.03;1.85;;;11.50;99.90;;;;;;5083681;28;20239;-67
2021/03/27 11:34:56;;;;;;;2.95;1.35;;;11.20;99.90;;;;;;5071403;28;20207;-67
2021/03/27 11:37:51;;;;;;;17.00;1.45;;;11.10;99.90;;;;;;5076774;28;20184;-67
2021/03/27 11:40:55;;;;;;;5.03;1.73;;;11.40;99.90;;;;;;5090250;28;20537;-67
2021/03/27 11:43:35;;;;;;;3.38;1.30;;;11.20;99.90;;;;;;5089680;28;20274;-67
2021/03/27 11:46:05;;;;;;;6.18;1.55;;;10.90;99.90;;;;;;5077323;28;20282;-68
2021/03/27 11:48:54;;;;;;;7.65;1.85;;;10.80;99.90;;;;;;5089174;28;20207;-68
2021/03/27 11:51:40;;;;;;;7.55;1.88;;;10.80;99.90;;;;;;5089387;28;20234;-67
2021/03/27 11:54:32;;;;;;;7.47;1.80;;;10.70;99.90;;;;;;5089613;28;20183;-67
2021/03/27 11:57:37;;;;;;;4.25;1.63;;;10.50;99.90;;;;;;5075445;28;20585;-68
2021/03/27 12:01:04;;;;;;;5.03;1.50;;;10.40;99.90;;;;;;5069056;28;20192;-68
2021/03/27 12:03:35;;;;;;;7.32;2.40;;;10.20;99.90;;;;;;5059511;28;20216;-67
2021/03/27 12:06:27;;;;;;;6.00;2.38;;;9.30;99.90;;;;;;5075680;28;20242;-67
2021/03/27 12:09:25;;;;;;;9.65;4.05;;;8.70;99.90;;;;;;5075754;28;20188;-67
2021/03/27 12:11:52;;;;;;;3.17;2.40;;;8.70;99.90;;;;;;5075503;28;20224;-67
2021/03/27 12:14:40;;;;;;;5.60;1.90;;;8.60;99.90;;;;;;5072694;28;20262;-67
2021/03/27 12:17:28;;;;;;;3.00;1.75;;;8.70;99.90;;;;;;5067688;28;20567;-67
2021/03/27 12:20:13;;;;;;;7.55;2.60;;;8.60;99.90;;;;;;5076078;28;20180;-67
2021/03/27 12:22:43;;;;;;;5.88;2.20;;;8.40;99.90;;;;;;5076041;28;20173;-67
2021/03/27 12:25:37;;;;;;;13.60;2.60;;;8.60;99.90;;;;;;5076010;28;20256;-67
2021/03/27 12:28:29;;;;;;;5.13;1.48;;;8.70;99.90;;;;;;5076108;28;20191;-68
2021/03/27 12:31:05;;;;;;;3.85;1.55;;;8.60;99.90;;;;;;5076004;28;20224;-67
2021/03/27 12:33:50;;;;;;;14.23;2.53;;;8.70;99.90;;;;;;5075874;28;20176;-67
2021/03/27 12:36:48;;;;;;;7.93;1.90;;;8.80;99.90;;;;;;5076572;28;20254;-67
2021/03/27 12:39:32;;;;;;;3.78;2.05;;;8.80;99.90;;;;;;5075669;28;20229;-67
2021/03/27 12:42:16;;;;;;;4.30;1.85;;;9.10;99.90;;;;;;5074291;28;20212;-67
2021/03/27 12:44:53;;;;;;;3.65;1.65;;;9.50;99.90;;;;;;5075898;28;20271;-67
2021/03/27 12:47:29;;;;;;;5.30;1.80;;;10.00;99.90;;;;;;5075520;28;20190;-67
2021/03/27 12:50:11;;;;;;;7.53;1.73;;;10.70;99.90;;;;;;5075061;28;20299;-67
2021/03/27 12:52:53;;;;;;;5.03;1.65;;;11.70;99.90;;;;;;5074261;28;20207;-68
2021/03/27 12:55:39;;;;;;;7.20;2.30;;;12.50;99.90;;;;;;5061184;28;20181;-68
2021/03/27 12:58:24;;;;;;;4.40;1.30;;;13.40;99.90;;;;;;5074505;28;20574;-67
2021/03/27 13:01:18;;;;;;;1.60;1.10;;;13.40;99.90;;;;;;5075463;28;20907;-68
2021/03/27 13:04:18;;;;;;;2.20;1.10;;;13.00;99.90;;;;;;5075296;28;20602;-68
2021/03/27 13:06:44;;;;;;;3.40;1.37;;;13.40;99.90;;;;;;5074998;28;20622;-68
2021/03/27 13:09:11;;;;;;;2.67;0.93;;;13.20;99.90;;;;;;5075336;28;20594;-68
2021/03/27 13:11:46;;;;;;;2.50;1.00;;;12.80;99.90;;;;;;5074871;28;20649;-67
2021/03/27 13:14:39;;;;;;;1.85;1.15;;;11.80;99.90;;;;;;5074346;28;21089;-67
2021/03/27 13:17:24;;;;;;;2.55;1.00;;;11.40;99.90;;;;;;5075507;28;20176;-67
2021/03/27 13:19:59;;;;;;;6.57;1.58;;;11.80;99.90;;;;;;5075162;28;20196;-67
2021/03/27 13:22:40;;;;;;;4.13;1.33;;;11.40;99.90;;;;;;5075098;28;20219;-67
2021/03/27 13:25:35;;;;;;;2.15;1.58;;;11.30;99.90;;;;;;5066549;28;20541;-67
2021/03/27 13:28:12;;;;;;;4.95;1.20;;;11.10;99.90;;;;;;5068780;28;20275;-67
2021/03/27 13:30:56;;;;;;;2.60;1.30;;;11.60;99.90;;;;;;5052979;28;20240;-67
2021/03/27 13:33:28;;;;;;;2.75;1.30;;;12.10;99.90;;;;;;5061192;28;20281;-68
2021/03/27 13:36:17;;;;;;;3.58;1.30;;;12.20;99.90;;;;;;5074165;28;20204;-68
2021/03/27 13:38:49;;;;;;;4.10;1.23;;;;;;;;;;5073114;28;20191;-68
2021/03/27 13:41:34;;;;;;;1.90;1.30;;;;;;;;;;5074731;28;20214;-67
2021/03/27 13:44:05;;;;;;;7.13;1.83;;;;;;;;;;5074496;28;20734;-68
2021/03/27 13:46:45;;;;;;;8.05;1.30;;;11.20;99.90;;;;;;5074492;28;20279;-67
2021/03/27 13:49:24;;;;;;;5.28;1.45;;;11.50;99.90;;;;;;5074388;28;20561;-68
2021/03/27 13:51:58;;;;;;;4.00;1.80;;;11.60;99.90;;;;;;5074137;28;20320;-67
2021/03/27 13:54:42;;;;;;;2.95;1.60;;;11.60;99.90;;;;;;5074557;28;20674;-68
2021/03/27 13:57:17;;;;;;;4.40;2.08;;;11.90;99.90;;;;;;5074532;28;20224;-68
2021/03/27 14:00:12;;;;;;;7.53;1.65;;;12.20;99.90;;;;;;5073950;28;20180;-67
2021/03/27 14:03:00;;;;;;;1.90;1.60;;;13.30;99.90;;;;;;5074136;28;20279;-67
2021/03/27 14:05:43;;;;;;;9.43;1.63;;;14.10;99.90;;;;;;5074213;28;21228;-67
2021/03/27 14:08:22;;;;;;;2.40;1.30;;;12.50;99.90;;;;;;5074540;28;20569;-67
2021/03/27 14:10:58;;;;;;;4.10;1.30;;;12.80;99.90;;;;;;5074208;28;20212;-67
2021/03/27 14:13:40;;;;;;;4.10;1.55;;;12.90;99.90;;;;;;5074142;28;20570;-67
2021/03/27 14:16:31;;;;;;;4.43;1.83;;;12.30;99.90;;;;;;5074020;28;20200;-67
2021/03/27 14:19:09;;;;;;;6.45;1.70;;;12.10;99.90;;;;;;5073998;28;20586;-67
2021/03/27 14:22:00;;;;;;;3.38;1.40;;;11.70;99.90;;;;;;5074026;28;20200;-67
2021/03/27 14:25:06;;;;;;;4.45;1.38;;;11.40;99.90;;;;;;5073366;28;20199;-68
2021/03/27 14:27:46;;;;;;;4.47;1.85;;;11.50;99.90;;;;;;5073410;28;20658;-68
2021/03/27 14:30:41;;;;;;;7.97;2.63;;;11.20;99.90;;;;;;5073507;28;20223;-68
2021/03/27 14:33:45;;;;;;;3.50;1.55;;;11.30;99.90;;;;;;5072606;28;20338;-68